createdAt,value
2023-03-29T00:03:33.986Z,98369.06
2023-03-29T00:08:37.823Z,98362.97
2023-03-29T00:13:39.965Z,98346.34
2023-03-29T00:18:41.459Z,98344.91
2023-03-29T00:23:42.870Z,98334.22
2023-03-29T00:28:44.349Z,98341.88
2023-03-29T00:33:45.981Z,98327.50
2023-03-29T00:38:47.718Z,98324.13
2023-03-29T00:44:00.982Z,98310.13
2023-03-29T00:49:12.635Z,98310.13
2023-03-29T00:54:18.602Z,98313.25
2023-03-29T00:59:24.222Z,98312.78
2023-03-29T01:04:48.849Z,98306.81
2023-03-29T01:09:58.145Z,98294.38
2023-03-29T01:15:05.392Z,98286.47
2023-03-29T01:20:22.250Z,98282.25
2023-03-29T01:25:31.303Z,98271.97
2023-03-29T01:30:43.687Z,98257.84
2023-03-29T01:35:59.879Z,98257.50
2023-03-29T01:41:03.707Z,98251.72
2023-03-29T01:46:20.628Z,98244.81
2023-03-29T01:51:29.682Z,98238.22
2023-03-29T01:56:36.864Z,98234.53
2023-03-29T02:01:42.573Z,98214.88
2023-03-29T02:06:45.856Z,98215.47
2023-03-29T02:11:48.426Z,98206.34
2023-03-29T02:16:49.935Z,98206.25
2023-03-29T02:22:04.653Z,98198.94
2023-03-29T02:27:06.261Z,98190.78
2023-03-29T02:32:18.295Z,98188.16
2023-03-29T02:37:22.151Z,98178.44
2023-03-29T02:42:25.446Z,98170.44
2023-03-29T02:47:33.024Z,98172.09
2023-03-29T02:52:40.114Z,98153.75
2023-03-29T02:57:43.397Z,98149.94
2023-03-29T03:02:45.876Z,98145.72
2023-03-29T03:07:47.589Z,98139.09
2023-03-29T03:12:49.119Z,98136.22
2023-03-29T03:17:50.586Z,98126.28
2023-03-29T03:22:52.041Z,98127.09
2023-03-29T03:27:54.266Z,98121.84
2023-03-29T03:32:58.326Z,98113.53
2023-03-29T03:38:35.232Z,98116.63
2023-03-29T03:43:37.403Z,98115.56
2023-03-29T03:48:38.838Z,98108.81
2023-03-29T03:53:44.398Z,98110.09
2023-03-29T03:58:48.785Z,98108.03
2023-03-29T04:03:52.657Z,98112.09
2023-03-29T04:08:54.571Z,98099.63
2023-03-29T04:14:11.092Z,98099.34
2023-03-29T04:19:34.928Z,98091.88
2023-03-29T04:24:36.699Z,98101.91
2023-03-29T04:30:08.270Z,98099.63
2023-03-29T04:35:39.793Z,98092.00
2023-03-29T04:40:45.549Z,98092.19
2023-03-29T04:45:56.466Z,98077.63
2023-03-29T04:51:18.390Z,98078.91
2023-03-29T04:56:20.604Z,98081.28
2023-03-29T05:01:55.615Z,98077.41
2023-03-29T05:06:57.464Z,98076.19
2023-03-29T05:11:58.963Z,98066.03
2023-03-29T05:17:05.706Z,98056.91
2023-03-29T05:22:09.333Z,98050.38
2023-03-29T05:27:11.753Z,98052.75
2023-03-29T05:32:14.758Z,98060.25
2023-03-29T05:37:17.749Z,98058.06
2023-03-29T05:42:27.906Z,98067.38
2023-03-29T05:47:33.309Z,98048.78
2023-03-29T05:52:35.121Z,98059.75
2023-03-29T05:57:37.576Z,98069.50
2023-03-29T06:02:39.524Z,98066.59
2023-03-29T06:07:41.066Z,98072.31
2023-03-29T06:13:02.433Z,98070.13
2023-03-29T06:18:07.801Z,98070.69
2023-03-29T06:23:10.633Z,98075.13
2023-03-29T06:28:14.429Z,98069.16
2023-03-29T06:33:16.877Z,98065.38
2023-03-29T06:38:28.297Z,98062.88
2023-03-29T06:43:33.476Z,98062.72
2023-03-29T06:48:42.536Z,98065.25
2023-03-29T06:53:44.134Z,98071.09
2023-03-29T06:58:46.876Z,98061.06
2023-03-29T07:04:09.293Z,98055.06
2023-03-29T07:09:31.744Z,98052.53
2023-03-29T07:14:55.862Z,98056.13
2023-03-29T07:20:02.098Z,98053.22
2023-03-29T07:25:19.137Z,98053.06
2023-03-29T07:30:23.992Z,98059.31
2023-03-29T07:35:26.911Z,98064.03
2023-03-29T07:40:29.474Z,98063.72
2023-03-29T07:45:52.569Z,98053.88
2023-03-29T07:50:54.753Z,98053.84
2023-03-29T07:56:02.093Z,98064.81
2023-03-29T08:01:32.960Z,98063.94
2023-03-29T08:06:51.239Z,98062.34
2023-03-29T08:11:55.323Z,98059.28
2023-03-29T08:17:03.125Z,98057.81
2023-03-29T08:22:06.730Z,98066.47
2023-03-29T08:27:27.167Z,98057.00
2023-03-29T08:32:29.638Z,98064.53
2023-03-29T08:37:32.506Z,98042.28
2023-03-29T08:42:54.370Z,98052.22
2023-03-29T08:48:31.422Z,98044.19
2023-03-29T08:53:45.026Z,98040.50
2023-03-29T08:58:58.572Z,98031.16
2023-03-29T09:04:20.036Z,98032.97
2023-03-29T09:09:32.862Z,98029.09
2023-03-29T09:14:47.782Z,98027.56
2023-03-29T09:20:28.033Z,98024.91
2023-03-29T09:25:53.424Z,98015.78
2023-03-29T09:31:15.242Z,98009.97
2023-03-29T09:36:24.943Z,98012.31
2023-03-29T09:41:36.912Z,98014.00
2023-03-29T09:46:45.550Z,98004.06
2023-03-29T09:51:49.618Z,98001.91
2023-03-29T09:56:53.395Z,98013.22
2023-03-29T10:02:07.582Z,98011.06
2023-03-29T10:07:18.025Z,98001.41
2023-03-29T10:12:23.254Z,98001.22
2023-03-29T10:17:27.912Z,97999.09
2023-03-29T10:22:37.444Z,97992.78
2023-03-29T10:27:41.915Z,97991.78
2023-03-29T10:32:43.599Z,97989.44
2023-03-29T10:37:49.819Z,97977.13
2023-03-29T10:42:51.938Z,97989.09
2023-03-29T10:47:56.524Z,97987.78
2023-03-29T10:52:58.066Z,97984.09
2023-03-29T10:58:25.867Z,97982.75
2023-03-29T11:03:47.150Z,97972.41
2023-03-29T11:08:57.154Z,97957.72
2023-03-29T11:14:13.813Z,97954.69
2023-03-29T11:19:37.408Z,97946.75
2023-03-29T11:25:16.962Z,97944.28
2023-03-29T11:30:25.661Z,97933.28
2023-03-29T11:35:46.444Z,97932.41
2023-03-29T11:41:06.621Z,97924.25
2023-03-29T11:46:13.627Z,97925.00
2023-03-29T11:51:23.346Z,97915.44
2023-03-29T11:56:30.962Z,97919.03
2023-03-29T12:01:42.195Z,97909.81
2023-03-29T12:06:59.900Z,97905.13
2023-03-29T12:12:23.239Z,97895.84
2023-03-29T12:17:31.502Z,97895.53
2023-03-29T12:22:33.633Z,97893.16
2023-03-29T12:27:52.046Z,97880.72
2023-03-29T12:33:02.964Z,97882.38
2023-03-29T12:38:32.763Z,97876.13
2023-03-29T12:43:53.206Z,97871.16
2023-03-29T12:49:12.364Z,97867.34
2023-03-29T12:54:22.496Z,97868.84
2023-03-29T12:59:26.940Z,97871.50
2023-03-29T13:04:50.714Z,97856.78
2023-03-29T13:10:08.094Z,97853.28
2023-03-29T13:15:16.802Z,97864.78
2023-03-29T13:20:34.411Z,97850.16
2023-03-29T13:26:08.046Z,97840.56
2023-03-29T13:31:36.035Z,97846.53
2023-03-29T13:36:53.691Z,97849.59
2023-03-29T13:42:08.747Z,97851.22
2023-03-29T13:47:19.189Z,97832.53
2023-03-29T13:52:59.308Z,97840.38
2023-03-29T13:58:12.005Z,97824.91
2023-03-29T14:03:17.304Z,97832.19
2023-03-29T14:08:27.170Z,97825.38
2023-03-29T14:13:29.558Z,97815.53
2023-03-29T14:18:39.049Z,97817.09
2023-03-29T14:23:44.930Z,97813.97
2023-03-29T14:28:47.958Z,97813.84
2023-03-29T14:33:53.754Z,97808.69
2023-03-29T14:39:02.807Z,97804.63
2023-03-29T14:44:07.906Z,97797.97
2023-03-29T14:49:12.462Z,97807.38
2023-03-29T14:54:21.946Z,97800.66
2023-03-29T14:59:40.816Z,97802.50
2023-03-29T15:04:42.314Z,97796.97
2023-03-29T15:09:45.279Z,97795.09
2023-03-29T15:14:51.446Z,97794.69
2023-03-29T15:20:09.674Z,97782.41
2023-03-29T15:25:18.041Z,97774.56
2023-03-29T15:30:19.705Z,97766.81
2023-03-29T15:35:24.600Z,97761.97
2023-03-29T15:40:28.046Z,97764.53
2023-03-29T15:45:29.527Z,97759.06
2023-03-29T15:50:32.368Z,97752.69
2023-03-29T15:55:33.807Z,97755.56
2023-03-29T16:00:35.839Z,97748.31
2023-03-29T16:05:37.298Z,97747.34
2023-03-29T16:10:40.356Z,97749.56
2023-03-29T16:15:42.857Z,97743.41
2023-03-29T16:20:44.337Z,97738.19
2023-03-29T16:25:45.850Z,97739.59
2023-03-29T16:30:48.318Z,97737.75
2023-03-29T16:35:49.805Z,97738.13
2023-03-29T16:40:52.419Z,97743.72
2023-03-29T16:45:53.905Z,97736.16
2023-03-29T16:50:55.681Z,97737.88
2023-03-29T16:55:57.553Z,97718.63
2023-03-29T17:01:09.554Z,97724.09
2023-03-29T17:06:12.074Z,97720.25
2023-03-29T17:11:13.850Z,97722.00
2023-03-29T17:16:16.203Z,97723.13
2023-03-29T17:21:17.792Z,97724.22
2023-03-29T17:26:19.219Z,97726.97
2023-03-29T17:31:21.229Z,97722.38
2023-03-29T17:36:25.260Z,97714.28
2023-03-29T17:41:28.573Z,97717.50
2023-03-29T17:46:32.155Z,97705.91
2023-03-29T17:51:33.606Z,97715.66
2023-03-29T17:56:35.183Z,97727.13
2023-03-29T18:01:39.085Z,97734.84
2023-03-29T18:06:41.131Z,97729.53
2023-03-29T18:11:42.609Z,97728.50
2023-03-29T18:16:44.111Z,97732.81
2023-03-29T18:21:45.594Z,97723.72
2023-03-29T18:26:47.111Z,97740.91
2023-03-29T18:31:48.627Z,97737.59
2023-03-29T18:36:50.778Z,97744.09
2023-03-29T18:41:52.289Z,97749.78
2023-03-29T18:46:54.391Z,97756.31
2023-03-29T18:51:56.140Z,97758.34
2023-03-29T18:56:59.273Z,97766.66
2023-03-29T19:02:00.831Z,97759.84
2023-03-29T19:07:03.446Z,97760.00
2023-03-29T19:12:05.162Z,97764.03
2023-03-29T19:17:06.568Z,97756.41
2023-03-29T19:22:08.244Z,97754.91
2023-03-29T19:27:12.564Z,97751.63
2023-03-29T19:32:14.134Z,97745.16
2023-03-29T19:37:17.397Z,97742.38
2023-03-29T19:42:18.798Z,97743.97
2023-03-29T19:47:20.748Z,97741.06
2023-03-29T19:52:23.864Z,97728.44
2023-03-29T19:57:25.492Z,97725.44
2023-03-29T20:02:27.317Z,97721.25
2023-03-29T20:07:28.752Z,97721.38
2023-03-29T20:12:30.264Z,97711.03
2023-03-29T20:17:35.317Z,97694.50
2023-03-29T20:22:41.917Z,97691.47
2023-03-29T20:27:43.319Z,97692.28
2023-03-29T20:32:44.837Z,97692.13
2023-03-29T20:37:46.272Z,97689.09
2023-03-29T20:42:48.804Z,97674.97
2023-03-29T20:47:57.306Z,97667.78
2023-03-29T20:53:03.478Z,97658.97
2023-03-29T20:58:05.833Z,97651.63
2023-03-29T21:03:08.320Z,97637.66
2023-03-29T21:08:10.124Z,97625.69
2023-03-29T21:13:11.649Z,97630.19
2023-03-29T21:18:13.117Z,97635.16
2023-03-29T21:23:14.515Z,97625.34
2023-03-29T21:28:15.944Z,97627.19
2023-03-29T21:33:17.353Z,97608.88
2023-03-29T21:38:18.834Z,97599.63
2023-03-29T21:43:20.391Z,97607.50
2023-03-29T21:48:21.817Z,97602.59
2023-03-29T21:53:24.548Z,97594.31
2023-03-29T21:58:26.111Z,97594.66
2023-03-29T22:03:28.070Z,97601.34
2023-03-29T22:08:30.641Z,97586.75
2023-03-29T22:13:32.051Z,97590.41
2023-03-29T22:18:42.251Z,97577.09
2023-03-29T22:23:50.753Z,97584.44
2023-03-29T22:28:52.233Z,97581.13
2023-03-29T22:33:54.491Z,97578.31
2023-03-29T22:38:56.216Z,97579.75
2023-03-29T22:43:59.215Z,97581.25
2023-03-29T22:49:00.664Z,97579.41
2023-03-29T22:54:02.071Z,97583.03
2023-03-29T22:59:03.529Z,97570.63
2023-03-29T23:04:05.277Z,97562.75
2023-03-29T23:09:06.770Z,97564.06
2023-03-29T23:14:08.547Z,97561.88
2023-03-29T23:19:10.467Z,97559.28
2023-03-29T23:24:11.875Z,97558.94
2023-03-29T23:29:13.893Z,97545.06
2023-03-29T23:34:15.297Z,97540.84
2023-03-29T23:39:16.695Z,97547.28
2023-03-29T23:44:18.115Z,97540.56
2023-03-29T23:49:22.715Z,97550.69
2023-03-29T23:54:25.186Z,97529.38
2023-03-29T23:59:29.837Z,97529.00
